Time;durP1;ratioP1;P1;durP2;ratioP2;P2;SDS_P1;SDS_P2;PMS_P1;PMS_P2;Temp;Humidity;BMP_temperature;BMP_pressure;BME280_temperature;BME280_humidity;BME280_pressure;Samples;Min_cycle;Max_cycle;Signal;HPM_P1;HPM_P2
2023/03/03 08:41:31;;;;;;;0.10;0.10;;;2.80;99.90;;;;;;5066630;28;20413;-91
2023/03/03 08:43:57;;;;;;;0.10;0.10;;;2.80;99.90;;;;;;5074109;28;20016;-88
2023/03/03 08:46:22;;;;;;;0.10;0.10;;;2.80;99.90;;;;;;5051967;28;20478;-87
2023/03/03 08:48:48;;;;;;;0.10;0.10;;;2.90;99.90;;;;;;5045795;28;20053;-89
2023/03/03 08:51:14;;;;;;;0.10;0.10;;;3.00;99.90;;;;;;5044738;28;20021;-89
2023/03/03 08:53:39;;;;;;;0.00;0.00;;;3.00;99.90;;;;;;5044812;28;20053;-89
2023/03/03 08:56:05;;;;;;;0.10;0.10;;;2.90;99.90;;;;;;5051846;28;20410;-88
2023/03/03 08:58:31;;;;;;;0.00;0.00;;;;;;;;;;5049127;28;20047;-87
2023/03/03 09:00:58;;;;;;;0.00;0.00;;;3.10;99.90;;;;;;5048346;28;20033;-89
2023/03/03 09:03:24;;;;;;;0.00;0.00;;;;;;;;;;5037864;28;20026;-90
2023/03/03 09:05:49;;;;;;;0.10;0.10;;;3.40;99.90;;;;;;5045403;28;20044;-89
2023/03/03 09:08:18;;;;;;;0.10;0.10;;;3.50;99.90;;;;;;5038259;28;20545;-90
2023/03/03 09:10:43;;;;;;;0.00;0.00;;;;;;;;;;5046623;28;20018;-88
2023/03/03 09:13:18;;;;;;;0.00;0.00;;;3.40;99.90;;;;;;5041007;28;20030;-90
2023/03/03 09:15:44;;;;;;;0.00;0.00;;;;;;;;;;5037545;28;20417;-88
2023/03/03 09:18:41;;;;;;;0.00;0.00;;;3.40;99.90;;;;;;5039002;28;20021;-89
2023/03/03 09:21:25;;;;;;;0.03;0.03;;;3.40;99.90;;;;;;5034607;28;20044;-89
2023/03/03 09:23:56;;;;;;;0.10;0.10;;;3.60;99.90;;;;;;5043317;28;20057;-90
2023/03/03 09:26:27;;;;;;;0.00;0.00;;;3.50;99.90;;;;;;5044874;28;20084;-89
2023/03/03 09:29:13;;;;;;;0.10;0.10;;;3.50;99.90;;;;;;5044185;28;20067;-89
2023/03/03 09:31:43;;;;;;;0.10;0.10;;;3.50;99.90;;;;;;5021386;28;20035;-90
2023/03/03 09:34:38;;;;;;;0.10;0.10;;;3.50;99.90;;;;;;5046135;28;20035;-88
2023/03/03 09:37:27;;;;;;;0.10;0.10;;;3.60;99.90;;;;;;5033388;28;20029;-88
2023/03/03 09:39:57;;;;;;;0.10;0.10;;;3.80;99.90;;;;;;5035939;28;20033;-89
2023/03/03 09:42:23;;;;;;;0.03;0.03;;;;;;;;;;5047068;28;20056;-91
2023/03/03 09:45:22;;;;;;;0.00;0.00;;;3.80;99.90;;;;;;5047493;28;20031;-89
2023/03/03 09:48:15;;;;;;;0.10;0.10;;;3.90;99.90;;;;;;5048500;28;20029;-89
2023/03/03 09:50:41;;;;;;;0.00;0.00;;;;;;;;;;5043433;28;20384;-89
2023/03/03 09:53:34;;;;;;;0.10;0.10;;;3.90;99.90;;;;;;5048050;28;20338;-89
2023/03/03 09:56:32;;;;;;;0.10;0.10;;;4.10;99.90;;;;;;5040788;28;20501;-89
2023/03/03 09:59:26;;;;;;;0.10;0.10;;;3.80;99.90;;;;;;5055419;28;20034;-90
2023/03/03 10:02:34;;;;;;;0.08;0.08;;;3.90;99.90;;;;;;5039183;28;20033;-89
2023/03/03 10:05:23;;;;;;;0.10;0.10;;;4.00;99.90;;;;;;5048670;28;20037;-89
2023/03/03 10:08:19;;;;;;;0.10;0.10;;;4.00;99.90;;;;;;5047575;28;20137;-89
2023/03/03 10:11:23;;;;;;;0.10;0.10;;;4.10;99.90;;;;;;5042420;28;20029;-89
2023/03/03 10:14:12;;;;;;;0.00;0.00;;;4.10;99.90;;;;;;5049954;28;20033;-90
2023/03/03 10:17:02;;;;;;;0.10;0.10;;;3.60;99.90;;;;;;5046478;28;20035;-88
2023/03/03 10:19:39;;;;;;;0.00;0.00;;;3.40;99.90;;;;;;5047790;28;20086;-89
2023/03/03 10:22:19;;;;;;;0.03;0.03;;;3.20;99.90;;;;;;5043191;28;20107;-88
2023/03/03 10:25:16;;;;;;;0.10;0.10;;;3.60;99.90;;;;;;5040078;28;20040;-88
2023/03/03 10:27:53;;;;;;;0.00;0.00;;;3.80;99.90;;;;;;5037405;28;20064;-89
2023/03/03 10:30:48;;;;;;;0.10;0.10;;;4.10;99.90;;;;;;5043116;28;20064;-86
2023/03/03 10:33:38;;;;;;;0.10;0.10;;;4.30;99.90;;;;;;5035613;28;20029;-89
2023/03/03 10:36:41;;;;;;;0.10;0.10;;;4.50;99.90;;;;;;5041667;28;20056;-88
2023/03/03 10:39:32;;;;;;;0.10;0.10;;;4.40;99.90;;;;;;5036083;28;20037;-88
2023/03/03 10:42:16;;;;;;;0.10;0.10;;;4.20;99.90;;;;;;5044916;28;20044;-88
2023/03/03 10:45:08;;;;;;;0.10;0.10;;;4.40;99.90;;;;;;5041607;28;20532;-88
2023/03/03 10:47:58;;;;;;;0.10;0.10;;;4.70;99.90;;;;;;5041457;28;20115;-88
2023/03/03 10:50:34;;;;;;;0.10;0.10;;;4.80;99.90;;;;;;5032787;28;20055;-88
2023/03/03 10:53:25;;;;;;;0.10;0.10;;;4.90;99.90;;;;;;5046957;28;20025;-88
2023/03/03 10:56:22;;;;;;;0.10;0.10;;;4.80;99.90;;;;;;5041578;28;20025;-88
2023/03/03 10:59:11;;;;;;;0.10;0.10;;;4.80;99.90;;;;;;5037613;28;20799;-88
2023/03/03 11:01:47;;;;;;;0.00;0.00;;;4.90;99.90;;;;;;5032077;28;20153;-87
2023/03/03 11:04:37;;;;;;;0.10;0.10;;;4.40;99.90;;;;;;5038206;28;20021;-89
2023/03/03 11:07:24;;;;;;;0.05;0.05;;;4.40;99.90;;;;;;5037449;28;20029;-90
2023/03/03 11:10:17;;;;;;;0.10;0.10;;;4.40;99.90;;;;;;5037306;28;20040;-89
2023/03/03 11:12:57;;;;;;;0.10;0.10;;;4.70;99.90;;;;;;5029174;28;20103;-89
2023/03/03 11:15:29;;;;;;;;;;;5.00;99.90;;;;;;5032674;28;20203;-88
2023/03/03 11:18:09;;;;;;;0.10;0.10;;;5.30;99.90;;;;;;5039908;28;20316;-90
2023/03/03 11:20:46;;;;;;;0.00;0.00;;;5.50;99.90;;;;;;5033166;28;20500;-87
2023/03/03 11:23:27;;;;;;;0.10;0.10;;;5.60;99.90;;;;;;5041174;28;20024;-90
2023/03/03 11:26:11;;;;;;;0.10;0.10;;;5.50;99.90;;;;;;5035953;28;20029;-89
2023/03/03 11:29:08;;;;;;;0.10;0.10;;;5.60;99.90;;;;;;5040453;28;20021;-89
2023/03/03 11:31:45;;;;;;;0.10;0.10;;;5.60;99.90;;;;;;5035277;28;20032;-89
2023/03/03 11:34:33;;;;;;;0.10;0.10;;;5.90;99.90;;;;;;5041491;28;20025;-86
2023/03/03 11:37:21;;;;;;;0.10;0.10;;;5.90;99.90;;;;;;5055839;28;20029;-89
2023/03/03 11:39:50;;;;;;;0.10;0.10;;;5.80;99.90;;;;;;5047912;28;20037;-89
2023/03/03 11:42:16;;;;;;;0.00;0.00;;;5.80;99.90;;;;;;5044043;28;20046;-89
2023/03/03 11:44:45;;;;;;;0.10;0.10;;;5.90;99.90;;;;;;5042530;28;20398;-88
2023/03/03 11:47:36;;;;;;;0.10;0.10;;;6.40;99.90;;;;;;5046819;28;20413;-88
2023/03/03 11:50:16;;;;;;;0.10;0.10;;;6.40;99.90;;;;;;5046630;28;20028;-89
2023/03/03 11:52:54;;;;;;;0.10;0.10;;;6.20;99.90;;;;;;5044366;28;20029;-89
2023/03/03 11:55:29;;;;;;;0.10;0.10;;;5.80;99.90;;;;;;5054995;28;20445;-88
2023/03/03 11:58:19;;;;;;;0.10;0.10;;;5.40;99.90;;;;;;5054117;28;20029;-88
2023/03/03 12:01:15;;;;;;;0.10;0.10;;;5.40;99.90;;;;;;5055685;28;20033;-86
2023/03/03 12:03:41;;;;;;;0.10;0.10;;;5.40;99.90;;;;;;5046636;28;20509;-88
2023/03/03 12:06:16;;;;;;;0.10;0.10;;;5.40;99.90;;;;;;5043903;28;20031;-88
2023/03/03 12:09:26;;;;;;;0.10;0.10;;;5.60;99.90;;;;;;5037657;28;20179;-89
2023/03/03 12:12:04;;;;;;;0.10;0.10;;;6.10;99.90;;;;;;5041236;28;20481;-89
2023/03/03 12:14:40;;;;;;;0.00;0.00;;;6.40;99.90;;;;;;5040737;28;20108;-87
2023/03/03 12:17:37;;;;;;;0.10;0.10;;;6.00;99.90;;;;;;5040687;28;20028;-89
2023/03/03 12:20:31;;;;;;;0.10;0.10;;;6.00;99.90;;;;;;5037211;28;20036;-89
2023/03/03 12:23:12;;;;;;;0.10;0.10;;;6.00;99.90;;;;;;5037848;28;20543;-88
2023/03/03 12:25:50;;;;;;;0.10;0.10;;;6.40;99.90;;;;;;5043357;28;20032;-88
2023/03/03 12:28:20;;;;;;;0.10;0.10;;;6.60;99.90;;;;;;5041371;28;20040;-88
2023/03/03 12:30:58;;;;;;;0.10;0.10;;;6.80;99.90;;;;;;5042701;28;20033;-89
2023/03/03 12:33:48;;;;;;;0.10;0.10;;;6.80;99.90;;;;;;5042497;28;20037;-88
2023/03/03 12:36:44;;;;;;;0.10;0.10;;;7.00;99.90;;;;;;5041906;28;20025;-88
2023/03/03 12:39:31;;;;;;;0.00;0.00;;;7.00;99.90;;;;;;5042201;28;20053;-89
2023/03/03 12:42:41;;;;;;;0.10;0.10;;;6.70;99.90;;;;;;5049686;28;20623;-89
2023/03/03 12:45:22;;;;;;;0.00;0.00;;;6.20;99.90;;;;;;5054477;28;20476;-89
2023/03/03 12:48:14;;;;;;;0.10;0.10;;;5.80;99.90;;;;;;5043065;28;20069;-89
2023/03/03 12:51:08;;;;;;;0.00;0.00;;;5.50;99.90;;;;;;5040370;28;20120;-89
2023/03/03 12:53:58;;;;;;;0.10;0.10;;;5.40;99.90;;;;;;5052995;28;20029;-86
2023/03/03 12:56:48;;;;;;;0.08;0.08;;;5.60;99.90;;;;;;5035943;28;20084;-89
2023/03/03 12:59:40;;;;;;;0.10;0.10;;;5.80;99.90;;;;;;5045029;28;20579;-89
2023/03/03 13:02:31;;;;;;;0.10;0.10;;;5.90;99.90;;;;;;5042014;28;20032;-89
2023/03/03 13:05:08;;;;;;;0.10;0.10;;;6.20;99.90;;;;;;5042879;28;20030;-89
2023/03/03 13:07:47;;;;;;;0.00;0.00;;;6.40;99.90;;;;;;5046980;28;20064;-87
2023/03/03 13:10:38;;;;;;;0.10;0.10;;;6.70;99.90;;;;;;5046820;28;20548;-88
2023/03/03 13:13:34;;;;;;;0.10;0.10;;;6.90;99.90;;;;;;5045421;28;20025;-88
2023/03/03 13:16:08;;;;;;;0.00;0.00;;;7.10;99.90;;;;;;5038722;28;20557;-89
2023/03/03 13:18:56;;;;;;;0.10;0.10;;;7.10;99.90;;;;;;5043204;28;20038;-89
2023/03/03 13:21:41;;;;;;;0.10;0.10;;;6.90;99.90;;;;;;5046948;28;20486;-88
2023/03/03 13:24:22;;;;;;;0.10;0.10;;;7.00;99.90;;;;;;5044056;28;20505;-88
2023/03/03 13:26:59;;;;;;;0.10;0.10;;;7.10;99.90;;;;;;5053500;28;20025;-89
2023/03/03 13:30:00;;;;;;;0.03;0.03;;;10.30;99.90;;;;;;5042430;28;20068;-89
2023/03/03 13:32:39;;;;;;;0.10;0.10;;;7.10;99.90;;;;;;5043258;28;21124;-89
2023/03/03 13:35:34;;;;;;;0.10;0.10;;;6.70;99.90;;;;;;5067118;28;20106;-89
2023/03/03 13:38:02;;;;;;;0.10;0.10;;;6.20;99.90;;;;;;5042553;28;20029;-88
2023/03/03 13:40:51;;;;;;;0.10;0.10;;;6.30;99.90;;;;;;5041763;28;20131;-90
2023/03/03 13:43:27;;;;;;;0.10;0.10;;;6.40;99.90;;;;;;5035073;28;20033;-89
2023/03/03 13:46:37;;;;;;;0.10;0.10;;;6.60;99.90;;;;;;5031394;28;20033;-89
2023/03/03 13:49:03;;;;;;;0.10;0.10;;;;;;;;;;5007674;28;20037;-90
2023/03/03 13:51:37;;;;;;;0.03;0.03;;;6.50;99.90;;;;;;5035806;28;20026;-87
2023/03/03 13:54:15;;;;;;;0.10;0.10;;;6.30;99.90;;;;;;5036156;28;20025;-88
2023/03/03 13:57:03;;;;;;;0.00;0.00;;;6.40;99.90;;;;;;5037793;28;20057;-89
2023/03/03 14:00:06;;;;;;;0.10;0.10;;;6.00;99.90;;;;;;5027528;28;20041;-90
2023/03/03 14:02:56;;;;;;;0.10;0.10;;;5.80;99.90;;;;;;5046484;28;20062;-89
2023/03/03 14:05:28;;;;;;;0.10;0.10;;;6.00;99.90;;;;;;5043785;28;20040;-89
2023/03/03 14:08:02;;;;;;;0.10;0.10;;;6.20;99.90;;;;;;5041676;28;20028;-89
2023/03/03 14:10:39;;;;;;;0.10;0.10;;;5.90;99.90;;;;;;5036954;28;20057;-89
2023/03/03 14:13:10;;;;;;;0.10;0.10;;;5.50;99.90;;;;;;5041248;28;20535;-89
2023/03/03 14:16:09;;;;;;;0.10;0.10;;;5.10;99.90;;;;;;5055896;28;20455;-89
2023/03/03 14:18:49;;;;;;;0.10;0.10;;;5.20;99.90;;;;;;5037686;28;20189;-89
2023/03/03 14:21:20;;;;;;;0.10;0.10;;;5.30;99.90;;;;;;5039960;28;20021;-88
2023/03/03 14:23:46;;;;;;;0.08;0.08;;;;;;;;;;5038867;28;20485;-89
2023/03/03 14:26:12;;;;;;;0.10;0.10;;;5.60;99.90;;;;;;5042371;28;20029;-89
2023/03/03 14:28:47;;;;;;;0.10;0.10;;;5.60;99.90;;;;;;5037468;28;20033;-89
2023/03/03 14:31:25;;;;;;;0.10;0.10;;;5.80;99.90;;;;;;5041424;28;20026;-90
2023/03/03 14:33:59;;;;;;;0.10;0.10;;;6.00;99.90;;;;;;5030540;28;20029;-90
2023/03/03 14:36:35;;;;;;;0.10;0.10;;;6.20;99.90;;;;;;5048941;28;20481;-90
2023/03/03 14:39:01;;;;;;;0.10;0.10;;;6.00;99.90;;;;;;5044359;28;20095;-90
2023/03/03 14:41:40;;;;;;;0.10;0.10;;;6.40;99.90;;;;;;5063367;28;20036;-90
2023/03/03 14:44:26;;;;;;;0.10;0.10;;;5.70;99.90;;;;;;5052933;28;20029;-90
2023/03/03 14:47:00;;;;;;;0.10;0.10;;;5.80;99.90;;;;;;5045712;28;20493;-90
2023/03/03 14:49:35;;;;;;;0.00;0.00;;;5.80;99.90;;;;;;5045272;28;20038;-90
2023/03/03 14:52:13;;;;;;;0.10;0.10;;;6.00;99.90;;;;;;5049701;28;20032;-89
2023/03/03 14:54:47;;;;;;;0.10;0.10;;;6.00;99.90;;;;;;5046064;28;20107;-90
2023/03/03 14:57:12;;;;;;;0.10;0.10;;;;;;;;;;5046433;28;20031;-89
2023/03/03 14:59:39;;;;;;;0.00;0.00;;;;;;;;;;5050477;28;20476;-89
2023/03/03 15:02:17;;;;;;;0.10;0.10;;;5.70;99.90;;;;;;5044557;28;20039;-89
2023/03/03 15:04:45;;;;;;;0.10;0.10;;;5.30;99.90;;;;;;5057184;28;20052;-89
2023/03/03 15:07:36;;;;;;;0.10;0.10;;;5.40;99.90;;;;;;5036486;28;20079;-89
2023/03/03 15:10:05;;;;;;;0.10;0.10;;;5.20;99.90;;;;;;5038513;28;20012;-89
2023/03/03 15:12:40;;;;;;;0.10;0.10;;;5.20;99.90;;;;;;5052750;28;20025;-90
2023/03/03 15:15:07;;;;;;;0.10;0.10;;;;;;;;;;5044925;28;20021;-90
2023/03/03 15:17:41;;;;;;;0.10;0.10;;;5.40;99.90;;;;;;5045309;28;20091;-90
2023/03/03 15:20:32;;;;;;;0.10;0.10;;;5.60;99.90;;;;;;5045149;28;20029;-90
2023/03/03 15:23:11;;;;;;;0.10;0.10;;;5.60;99.90;;;;;;5040207;28;20136;-89
2023/03/03 15:25:56;;;;;;;0.10;0.10;;;5.60;99.90;;;;;;5045544;28;20037;-89
2023/03/03 15:28:34;;;;;;;0.10;0.10;;;5.60;99.90;;;;;;5039704;28;20501;-89
2023/03/03 15:31:21;;;;;;;0.10;0.10;;;5.60;99.90;;;;;;5035650;28;20029;-90
2023/03/03 15:34:21;;;;;;;0.08;0.08;;;5.60;99.90;;;;;;5041754;28;20029;-88
2023/03/03 15:37:15;;;;;;;0.00;0.00;;;5.70;99.90;;;;;;5040004;28;20033;-89
2023/03/03 15:39:41;;;;;;;0.10;0.10;;;;;;;;;;5039019;28;20262;-89
2023/03/03 15:42:20;;;;;;;0.10;0.10;;;5.80;99.90;;;;;;5038639;28;20118;-88
2023/03/03 15:45:11;;;;;;;0.10;0.10;;;5.80;99.90;;;;;;5043361;28;20029;-90
2023/03/03 15:47:50;;;;;;;0.10;0.10;;;5.50;99.90;;;;;;5039358;28;20048;-89
2023/03/03 15:50:40;;;;;;;0.10;0.10;;;5.50;99.90;;;;;;5039756;28;20048;-90
2023/03/03 15:53:27;;;;;;;0.10;0.10;;;5.80;99.90;;;;;;5060475;28;20021;-89
2023/03/03 15:56:22;;;;;;;0.10;0.10;;;5.80;99.90;;;;;;5049037;28;20808;-89
2023/03/03 15:59:23;;;;;;;0.10;0.10;;;5.70;99.90;;;;;;5046577;28;20061;-89
2023/03/03 16:02:25;;;;;;;0.05;0.05;;;5.70;99.90;;;;;;5036530;28;20033;-89
2023/03/03 16:05:33;;;;;;;0.10;0.10;;;5.80;99.90;;;;;;5019269;28;20037;-90
2023/03/03 16:08:24;;;;;;;0.03;0.03;;;5.80;99.90;;;;;;5042425;28;20029;-89
2023/03/03 16:11:03;;;;;;;0.10;0.10;;;5.90;99.90;;;;;;5038780;28;20405;-89
2023/03/03 16:13:47;;;;;;;0.10;0.10;;;5.80;99.90;;;;;;5044873;28;20497;-90
2023/03/03 16:16:32;;;;;;;0.00;0.00;;;3.50;99.90;;;;;;5043121;28;20025;-89
2023/03/03 16:19:41;;;;;;;0.10;0.10;;;5.60;99.90;;;;;;5043324;28;20037;-89
2023/03/03 16:22:35;;;;;;;0.10;0.10;;;5.50;99.90;;;;;;5042067;28;20033;-89
2023/03/03 16:25:24;;;;;;;0.10;0.10;;;5.50;99.90;;;;;;5041788;28;20318;-89
2023/03/03 16:28:08;;;;;;;0.10;0.10;;;5.60;99.90;;;;;;5040646;28;20115;-89
2023/03/03 16:30:38;;;;;;;0.10;0.10;;;5.50;99.90;;;;;;5046871;28;20025;-90
2023/03/03 16:33:09;;;;;;;;;;;8.70;99.90;;;;;;5041176;28;20067;-89
2023/03/03 16:36:06;;;;;;;0.10;0.10;;;5.40;99.90;;;;;;5038095;28;19916;-89
2023/03/03 16:38:44;;;;;;;0.10;0.10;;;5.40;99.90;;;;;;5001458;28;20120;-89
2023/03/03 16:41:22;;;;;;;0.10;0.10;;;5.30;99.90;;;;;;5041420;28;20123;-90
2023/03/03 16:44:18;;;;;;;0.10;0.10;;;5.20;99.90;;;;;;5041147;28;20021;-88
2023/03/03 16:46:47;;;;;;;0.10;0.10;;;5.20;99.90;;;;;;5036251;28;20061;-88
2023/03/03 16:49:50;;;;;;;0.00;0.00;;;6.90;99.90;;;;;;5039669;28;20074;-89
2023/03/03 16:52:18;;;;;;;0.10;0.10;;;5.20;99.90;;;;;;5040475;28;20080;-89
2023/03/03 16:54:53;;;;;;;0.10;0.10;;;5.20;99.90;;;;;;5045993;28;20028;-90
2023/03/03 16:57:58;;;;;;;0.10;0.10;;;5.00;99.90;;;;;;5037236;28;20052;-90
2023/03/03 17:00:28;;;;;;;0.10;0.10;;;4.90;99.90;;;;;;5036416;28;20025;-89
2023/03/03 17:03:14;;;;;;;;;;;4.80;99.90;;;;;;5033855;28;20033;-89
2023/03/03 17:05:56;;;;;;;0.10;0.10;;;4.60;99.90;;;;;;5037796;28;20187;-89
2023/03/03 17:08:42;;;;;;;0.10;0.10;;;4.60;99.90;;;;;;5033093;28;20037;-89
2023/03/03 17:11:33;;;;;;;0.00;0.00;;;4.40;99.90;;;;;;5035071;28;20567;-90
2023/03/03 17:14:23;;;;;;;0.00;0.00;;;4.30;99.90;;;;;;5039900;28;20052;-89
2023/03/03 17:17:16;;;;;;;0.20;0.20;;;4.20;99.90;;;;;;5035865;28;20105;-88
2023/03/03 17:19:56;;;;;;;0.10;0.10;;;4.20;99.90;;;;;;5037215;28;20033;-89
2023/03/03 17:22:45;;;;;;;0.10;0.10;;;4.10;99.90;;;;;;5050675;28;20397;-89
2023/03/03 17:25:20;;;;;;;0.00;0.00;;;4.00;99.90;;;;;;5054145;28;20486;-89
2023/03/03 17:27:48;;;;;;;0.00;0.00;;;4.10;99.90;;;;;;5036152;28;20036;-89
2023/03/03 17:30:28;;;;;;;0.00;0.00;;;4.20;99.90;;;;;;5038909;28;20021;-89
2023/03/03 17:33:06;;;;;;;0.00;0.00;;;4.70;99.90;;;;;;5041860;28;20034;-89
2023/03/03 17:35:50;;;;;;;0.10;0.10;;;4.30;99.90;;;;;;5041390;28;20021;-90
2023/03/03 17:38:58;;;;;;;0.08;0.08;;;4.50;99.90;;;;;;5038544;28;20034;-90
2023/03/03 17:41:55;;;;;;;0.10;0.10;;;4.50;99.90;;;;;;4963687;28;20031;-89
2023/03/03 17:44:30;;;;;;;0.10;0.10;;;4.40;99.90;;;;;;5037522;28;20029;-89
2023/03/03 17:47:00;;;;;;;0.10;0.10;;;4.50;99.90;;;;;;5032209;28;20112;-90
2023/03/03 17:49:38;;;;;;;;;;;4.40;99.90;;;;;;5035644;28;20032;-90
2023/03/03 17:52:20;;;;;;;0.10;0.10;;;4.40;99.90;;;;;;5035102;28;19958;-90
2023/03/03 17:54:45;;;;;;;0.10;0.10;;;4.40;99.90;;;;;;5044347;28;20398;-90
2023/03/03 17:57:12;;;;;;;0.05;0.05;;;;;;;;;;5038941;28;20036;-90
2023/03/03 18:00:03;;;;;;;0.05;0.05;;;4.40;99.90;;;;;;5042921;28;20041;-91
2023/03/03 18:02:56;;;;;;;0.05;0.05;;;4.40;99.90;;;;;;5035875;28;20033;-89
2023/03/03 18:05:21;;;;;;;0.05;0.05;;;;;;;;;;5033310;28;20025;-89
2023/03/03 18:07:50;;;;;;;0.03;0.03;;;4.50;99.90;;;;;;5044334;28;20453;-89
2023/03/03 18:10:51;;;;;;;0.10;0.10;;;4.50;99.90;;;;;;5039244;28;20615;-90
2023/03/03 18:14:03;;;;;;;0.10;0.10;;;4.60;99.90;;;;;;5037990;28;20119;-90
2023/03/03 18:17:06;;;;;;;0.10;0.10;;;4.70;99.90;;;;;;5046042;28;20029;-89
2023/03/03 18:20:09;;;;;;;0.05;0.05;;;4.70;99.90;;;;;;5037839;28;20033;-89
2023/03/03 18:22:44;;;;;;;0.10;0.10;;;4.70;99.90;;;;;;5047226;28;20041;-90
2023/03/03 18:25:21;;;;;;;0.10;0.10;;;4.80;99.90;;;;;;5046034;28;20036;-89
2023/03/03 18:28:06;;;;;;;0.10;0.10;;;4.70;99.90;;;;;;5032573;28;20040;-89
2023/03/03 18:30:59;;;;;;;0.10;0.10;;;4.80;99.90;;;;;;5032729;28;20107;-90
2023/03/03 18:33:40;;;;;;;0.00;0.00;;;4.70;99.90;;;;;;5037495;28;20068;-89
2023/03/03 18:36:36;;;;;;;0.10;0.10;;;4.80;99.90;;;;;;5039041;28;20087;-89
2023/03/03 18:39:05;;;;;;;0.10;0.10;;;4.80;99.90;;;;;;5045514;28;20042;-89
2023/03/03 18:41:33;;;;;;;0.00;0.00;;;4.80;99.90;;;;;;5034922;28;20033;-89
2023/03/03 18:44:22;;;;;;;0.08;0.08;;;4.80;99.90;;;;;;5037465;28;20026;-89
2023/03/03 18:46:49;;;;;;;0.10;0.10;;;4.90;99.90;;;;;;5045633;28;20036;-89
2023/03/03 18:49:15;;;;;;;0.10;0.10;;;;;;;;;;5041647;28;20080;-89
2023/03/03 18:51:40;;;;;;;0.10;0.10;;;4.90;99.90;;;;;;5043652;28;20045;-89
2023/03/03 18:54:16;;;;;;;0.10;0.10;;;5.00;99.90;;;;;;5040680;28;20059;-89
2023/03/03 18:56:56;;;;;;;0.10;0.10;;;5.10;99.90;;;;;;5039128;28;20086;-91
2023/03/03 18:59:39;;;;;;;0.10;0.10;;;5.10;99.90;;;;;;5039662;28;20032;-91
2023/03/03 19:02:16;;;;;;;0.10;0.10;;;5.00;99.90;;;;;;5036180;28;20059;-90
2023/03/03 19:05:05;;;;;;;0.10;0.10;;;5.10;99.90;;;;;;5040726;28;20029;-90
2023/03/03 19:07:45;;;;;;;0.10;0.10;;;5.10;99.90;;;;;;5039604;28;20405;-87
2023/03/03 19:10:20;;;;;;;0.00;0.00;;;5.10;99.90;;;;;;5041117;28;20107;-89
2023/03/03 19:12:59;;;;;;;0.10;0.10;;;5.20;99.90;;;;;;5036278;28;20021;-89
2023/03/03 19:15:32;;;;;;;0.00;0.00;;;5.20;99.90;;;;;;5042555;28;20026;-88
2023/03/03 19:17:58;;;;;;;0.00;0.00;;;;;;;;;;5040460;28;20116;-89
2023/03/03 19:20:24;;;;;;;0.10;0.10;;;5.20;99.90;;;;;;5038528;28;20103;-89
2023/03/03 19:23:26;;;;;;;0.10;0.10;;;5.80;99.90;;;;;;5040192;28;20527;-89
2023/03/03 19:26:22;;;;;;;0.05;0.05;;;5.30;99.90;;;;;;4964517;28;20030;-89
2023/03/03 19:28:57;;;;;;;0.10;0.10;;;5.30;99.90;;;;;;5045607;28;20137;-89
2023/03/03 19:31:33;;;;;;;0.00;0.00;;;5.30;99.90;;;;;;5038906;28;20024;-90
2023/03/03 19:34:31;;;;;;;0.10;0.10;;;5.40;99.90;;;;;;5036110;28;20075;-89
2023/03/03 19:37:10;;;;;;;0.10;0.10;;;5.40;99.90;;;;;;5041167;28;20037;-88
2023/03/03 19:39:36;;;;;;;0.10;0.10;;;;;;;;;;5053479;28;20029;-87
2023/03/03 19:42:20;;;;;;;0.10;0.10;;;5.50;99.90;;;;;;5037895;28;20034;-89
2023/03/03 19:45:14;;;;;;;0.10;0.10;;;5.40;99.90;;;;;;5034865;28;20025;-89
2023/03/03 19:48:12;;;;;;;0.00;0.00;;;5.40;99.90;;;;;;5034061;28;20043;-89
2023/03/03 19:50:50;;;;;;;0.10;0.10;;;5.40;99.90;;;;;;5028996;28;20085;-89
2023/03/03 19:53:22;;;;;;;0.10;0.10;;;5.40;99.90;;;;;;5040637;28;20458;-89
2023/03/03 19:56:15;;;;;;;0.10;0.10;;;5.40;99.90;;;;;;5042941;28;20018;-89
2023/03/03 19:59:01;;;;;;;0.10;0.10;;;5.30;99.90;;;;;;5033806;28;20558;-88
2023/03/03 20:01:49;;;;;;;0.00;0.00;;;5.60;99.90;;;;;;5036846;28;20029;-90
2023/03/03 20:04:44;;;;;;;0.10;0.10;;;5.50;99.90;;;;;;5034362;28;20048;-87
2023/03/03 20:07:32;;;;;;;0.10;0.10;;;5.50;99.90;;;;;;5037536;28;20078;-88
2023/03/03 20:10:09;;;;;;;0.10;0.10;;;5.50;99.90;;;;;;5033922;28;20033;-88
2023/03/03 20:12:55;;;;;;;0.10;0.10;;;5.50;99.90;;;;;;5035494;28;20033;-88
2023/03/03 20:15:31;;;;;;;0.10;0.10;;;5.50;99.90;;;;;;5039433;28;20444;-86
2023/03/03 20:18:08;;;;;;;0.10;0.10;;;5.50;99.90;;;;;;5038191;28;20029;-89
2023/03/03 20:20:52;;;;;;;0.10;0.10;;;5.50;99.90;;;;;;5034265;28;20028;-88
2023/03/03 20:23:35;;;;;;;0.05;0.05;;;5.70;99.90;;;;;;5035891;28;20025;-89
2023/03/03 20:26:27;;;;;;;0.03;0.03;;;5.60;99.90;;;;;;5042639;28;20067;-88
2023/03/03 20:29:22;;;;;;;0.10;0.10;;;5.60;99.90;;;;;;5035822;28;20057;-89
2023/03/03 20:32:06;;;;;;;0.10;0.10;;;5.70;99.90;;;;;;5034849;28;20042;-88
2023/03/03 20:34:49;;;;;;;0.10;0.10;;;5.60;99.90;;;;;;5048256;28;20036;-89
2023/03/03 20:37:55;;;;;;;0.10;0.10;;;5.70;99.90;;;;;;5041818;28;20030;-89
2023/03/03 20:40:34;;;;;;;0.10;0.10;;;5.60;99.90;;;;;;5017664;28;20063;-89
2023/03/03 20:43:09;;;;;;;0.10;0.10;;;5.50;99.90;;;;;;5045845;28;20026;-87
2023/03/03 20:45:56;;;;;;;0.00;0.00;;;5.50;99.90;;;;;;5042355;28;20481;-89
2023/03/03 20:49:02;;;;;;;0.00;0.00;;;5.50;99.90;;;;;;5037257;28;20091;-89
2023/03/03 20:51:33;;;;;;;0.10;0.10;;;5.50;99.90;;;;;;5051360;28;20068;-89
2023/03/03 20:54:24;;;;;;;0.05;0.05;;;5.60;99.90;;;;;;5037379;28;20029;-90
2023/03/03 20:57:14;;;;;;;0.10;0.10;;;5.50;99.90;;;;;;5044218;28;20048;-90
2023/03/03 20:59:49;;;;;;;0.10;0.10;;;5.50;99.90;;;;;;5039873;28;20021;-90
2023/03/03 21:02:36;;;;;;;0.10;0.10;;;5.50;99.90;;;;;;5033012;28;20084;-91
2023/03/03 21:05:11;;;;;;;0.10;0.10;;;5.50;99.90;;;;;;5039641;28;20493;-90
2023/03/03 21:07:39;;;;;;;0.05;0.05;;;5.60;99.90;;;;;;5036597;28;20033;-90
2023/03/03 21:10:15;;;;;;;0.10;0.10;;;5.70;99.90;;;;;;5038369;28;20044;-90
2023/03/03 21:12:41;;;;;;;0.10;0.10;;;;;;;;;;5040640;28;20024;-90
2023/03/03 21:15:20;;;;;;;0.10;0.10;;;5.70;99.90;;;;;;5034989;28;21595;-91
2023/03/03 21:17:47;;;;;;;0.20;0.20;;;;;;;;;;5030158;28;20615;-91
2023/03/03 21:20:30;;;;;;;0.10;0.10;;;5.70;99.90;;;;;;5037862;28;20035;-90
2023/03/03 21:22:58;;;;;;;0.10;0.10;;;5.40;99.90;;;;;;5030101;28;20026;-89
2023/03/03 21:25:43;;;;;;;0.10;0.10;;;5.30;99.90;;;;;;5040478;28;20497;-88
2023/03/03 21:28:17;;;;;;;0.10;0.10;;;5.40;99.90;;;;;;5041119;28;20028;-89
2023/03/03 21:31:04;;;;;;;0.10;0.10;;;5.20;99.90;;;;;;5038642;28;20029;-89
2023/03/03 21:33:52;;;;;;;0.10;0.10;;;6.10;99.90;;;;;;5042767;28;20035;-89
2023/03/03 21:36:38;;;;;;;0.10;0.10;;;5.10;99.90;;;;;;5035439;28;20029;-89
2023/03/03 21:39:30;;;;;;;0.10;0.10;;;5.10;99.90;;;;;;5038805;28;20035;-87
2023/03/03 21:42:02;;;;;;;0.10;0.10;;;5.10;99.90;;;;;;5048354;28;20028;-88
2023/03/03 21:44:39;;;;;;;0.10;0.10;;;5.10;99.90;;;;;;5041210;28;20032;-89
2023/03/03 21:47:07;;;;;;;0.10;0.10;;;5.10;99.90;;;;;;5038475;28;20484;-89
2023/03/03 21:49:33;;;;;;;0.10;0.10;;;;;;;;;;5034197;28;20029;-89
2023/03/03 21:51:59;;;;;;;0.10;0.10;;;;;;;;;;5039288;28;20029;-90
2023/03/03 21:54:25;;;;;;;0.10;0.10;;;;;;;;;;5042077;28;20032;-89
2023/03/03 21:56:51;;;;;;;0.10;0.10;;;6.30;99.90;;;;;;5040564;28;20401;-89
2023/03/03 21:59:17;;;;;;;0.10;0.10;;;5.50;99.90;;;;;;5046486;28;20065;-89
2023/03/03 22:01:44;;;;;;;0.00;0.00;;;;;;;;;;5040492;28;20033;-88
2023/03/03 22:04:10;;;;;;;0.00;0.00;;;;;;;;;;5046066;28;20029;-88
2023/03/03 22:06:38;;;;;;;0.10;0.10;;;5.50;99.90;;;;;;5041677;28;20033;-89
2023/03/03 22:09:04;;;;;;;0.03;0.03;;;;;;;;;;5045526;28;20029;-89
2023/03/03 22:11:30;;;;;;;0.10;0.10;;;;;;;;;;5040081;28;20029;-88
2023/03/03 22:13:56;;;;;;;0.10;0.10;;;;;;;;;;5043716;28;20033;-89
2023/03/03 22:16:22;;;;;;;0.10;0.10;;;5.60;99.90;;;;;;5039422;28;20039;-89
2023/03/03 22:18:48;;;;;;;0.10;0.10;;;;;;;;;;5049701;28;20028;-89
2023/03/03 22:21:14;;;;;;;0.00;0.00;;;;;;;;;;5040610;28;20021;-89
2023/03/03 22:23:40;;;;;;;0.10;0.10;;;;;;;;;;5041967;28;20021;-88
2023/03/03 22:26:06;;;;;;;0.10;0.10;;;;;;;;;;5044971;28;20511;-90
2023/03/03 22:28:31;;;;;;;0.10;0.10;;;5.60;99.90;;;;;;5049047;28;20051;-89
2023/03/03 22:30:57;;;;;;;0.10;0.10;;;;;;;;;;5041575;28;20108;-89
2023/03/03 22:33:22;;;;;;;0.00;0.00;;;5.60;99.90;;;;;;5041324;28;20453;-88
2023/03/03 22:35:49;;;;;;;0.10;0.10;;;;;;;;;;5047696;28;20033;-89
2023/03/03 22:38:15;;;;;;;0.10;0.10;;;5.60;99.90;;;;;;5051722;28;20548;-89
2023/03/03 22:40:41;;;;;;;0.10;0.10;;;5.50;99.90;;;;;;5045542;28;20069;-89
2023/03/03 22:43:06;;;;;;;0.00;0.00;;;5.70;99.90;;;;;;5052457;28;20113;-90
2023/03/03 22:45:32;;;;;;;0.10;0.10;;;5.80;99.90;;;;;;5045328;28;20500;-89
2023/03/03 22:47:58;;;;;;;0.00;0.00;;;5.70;99.90;;;;;;5043109;28;20030;-91
2023/03/03 22:50:23;;;;;;;0.10;0.10;;;5.70;99.90;;;;;;5037633;28;21082;-88
2023/03/03 22:52:49;;;;;;;0.10;0.10;;;5.60;99.90;;;;;;5044738;28;20029;-89
2023/03/03 22:55:15;;;;;;;0.10;0.10;;;5.50;99.90;;;;;;5049768;28;20034;-90
2023/03/03 22:57:40;;;;;;;0.10;0.10;;;5.50;99.90;;;;;;5042156;28;20025;-89
2023/03/03 23:00:10;;;;;;;0.10;0.10;;;5.40;99.90;;;;;;5042048;28;20791;-89